sensor_id;sensor_type;location;lat;lon;timestamp;pressure;altitude;pressure_sealevel;temperature;humidity
38716;BME280;24833;49.324;8.694;2023-05-10T00:00:55;99144.00;;;13.96;75.91
38716;BME280;24833;49.324;8.694;2023-05-10T00:03:22;99139.13;;;13.93;76.83
38716;BME280;24833;49.324;8.694;2023-05-10T00:05:49;99144.72;;;13.91;75.98
38716;BME280;24833;49.324;8.694;2023-05-10T00:08:16;99137.94;;;13.88;74.60
38716;BME280;24833;49.324;8.694;2023-05-10T00:10:43;99139.00;;;13.87;75.46
38716;BME280;24833;49.324;8.694;2023-05-10T00:13:10;99144.84;;;13.84;75.42
38716;BME280;24833;49.324;8.694;2023-05-10T00:15:37;99142.16;;;13.84;75.95
38716;BME280;24833;49.324;8.694;2023-05-10T00:18:04;99145.03;;;13.83;75.30
38716;BME280;24833;49.324;8.694;2023-05-10T00:20:31;99146.34;;;13.80;75.67
38716;BME280;24833;49.324;8.694;2023-05-10T00:22:58;99143.91;;;13.79;74.50
38716;BME280;24833;49.324;8.694;2023-05-10T00:25:25;99141.22;;;13.79;77.29
38716;BME280;24833;49.324;8.694;2023-05-10T00:27:52;99139.78;;;13.76;76.74
38716;BME280;24833;49.324;8.694;2023-05-10T00:30:21;99143.53;;;13.75;75.79
38716;BME280;24833;49.324;8.694;2023-05-10T00:32:48;99139.22;;;13.74;77.25
38716;BME280;24833;49.324;8.694;2023-05-10T00:35:16;99140.28;;;13.73;77.94
38716;BME280;24833;49.324;8.694;2023-05-10T00:37:43;99132.09;;;13.68;75.32
38716;BME280;24833;49.324;8.694;2023-05-10T00:40:11;99135.81;;;13.67;76.36
38716;BME280;24833;49.324;8.694;2023-05-10T00:42:39;99138.75;;;13.66;75.95
38716;BME280;24833;49.324;8.694;2023-05-10T00:45:07;99140.81;;;13.63;75.41
38716;BME280;24833;49.324;8.694;2023-05-10T00:47:35;99150.16;;;13.61;75.36
38716;BME280;24833;49.324;8.694;2023-05-10T00:50:02;99152.84;;;13.61;75.17
38716;BME280;24833;49.324;8.694;2023-05-10T00:52:31;99147.72;;;13.59;76.94
38716;BME280;24833;49.324;8.694;2023-05-10T00:54:58;99146.91;;;13.59;76.33
38716;BME280;24833;49.324;8.694;2023-05-10T00:57:27;99148.53;;;13.60;77.36
38716;BME280;24833;49.324;8.694;2023-05-10T00:59:54;99150.63;;;13.58;75.90
38716;BME280;24833;49.324;8.694;2023-05-10T01:02:21;99145.25;;;13.58;75.22
38716;BME280;24833;49.324;8.694;2023-05-10T01:04:49;99147.94;;;13.58;76.50
38716;BME280;24833;49.324;8.694;2023-05-10T01:07:16;99148.75;;;13.58;75.48
38716;BME280;24833;49.324;8.694;2023-05-10T01:09:43;99149.59;;;13.59;75.57
38716;BME280;24833;49.324;8.694;2023-05-10T01:12:11;99145.03;;;13.59;75.24
38716;BME280;24833;49.324;8.694;2023-05-10T01:14:38;99148.75;;;13.58;77.42
38716;BME280;24833;49.324;8.694;2023-05-10T01:17:06;99152.25;;;13.59;76.18
38716;BME280;24833;49.324;8.694;2023-05-10T01:19:35;99154.94;;;13.59;76.74
38716;BME280;24833;49.324;8.694;2023-05-10T01:25:02;99160.75;;;13.56;76.15
38716;BME280;24833;49.324;8.694;2023-05-10T01:28:13;99155.06;;;13.52;74.78
38716;BME280;24833;49.324;8.694;2023-05-10T01:36:50;99149.41;;;13.42;77.49
38716;BME280;24833;49.324;8.694;2023-05-10T01:39:28;99157.94;;;13.39;77.42
38716;BME280;24833;49.324;8.694;2023-05-10T01:42:03;99160.25;;;13.35;75.60
38716;BME280;24833;49.324;8.694;2023-05-10T01:44:53;99167.94;;;13.32;76.37
38716;BME280;24833;49.324;8.694;2023-05-10T01:50:02;99179.09;;;13.29;76.77
38716;BME280;24833;49.324;8.694;2023-05-10T01:52:36;99176.06;;;13.25;77.06
38716;BME280;24833;49.324;8.694;2023-05-10T01:55:08;99183.50;;;13.23;76.10
38716;BME280;24833;49.324;8.694;2023-05-10T01:57:36;99179.44;;;13.21;74.08
38716;BME280;24833;49.324;8.694;2023-05-10T02:00:07;99183.97;;;13.20;76.68
38716;BME280;24833;49.324;8.694;2023-05-10T02:02:45;99175.09;;;13.20;75.81
38716;BME280;24833;49.324;8.694;2023-05-10T02:05:14;99172.63;;;13.18;75.40
38716;BME280;24833;49.324;8.694;2023-05-10T02:07:43;99186.03;;;13.18;76.23
38716;BME280;24833;49.324;8.694;2023-05-10T02:10:12;99179.03;;;13.17;77.15
38716;BME280;24833;49.324;8.694;2023-05-10T02:12:46;99177.38;;;13.16;76.16
38716;BME280;24833;49.324;8.694;2023-05-10T02:15:20;99186.47;;;13.15;76.15
38716;BME280;24833;49.324;8.694;2023-05-10T02:17:48;99191.84;;;13.15;76.52
38716;BME280;24833;49.324;8.694;2023-05-10T02:20:17;99189.63;;;13.12;75.96
38716;BME280;24833;49.324;8.694;2023-05-10T02:22:48;99192.31;;;13.12;75.81
38716;BME280;24833;49.324;8.694;2023-05-10T02:25:19;99196.03;;;13.11;75.31
38716;BME280;24833;49.324;8.694;2023-05-10T02:27:47;99198.09;;;13.09;74.32
38716;BME280;24833;49.324;8.694;2023-05-10T02:30:15;99198.09;;;13.09;76.52
38716;BME280;24833;49.324;8.694;2023-05-10T02:32:44;99205.34;;;13.08;76.06
38716;BME280;24833;49.324;8.694;2023-05-10T02:35:12;99196.47;;;13.08;75.50
38716;BME280;24833;49.324;8.694;2023-05-10T02:37:40;99194.84;;;13.07;75.39
38716;BME280;24833;49.324;8.694;2023-05-10T02:40:08;99208.81;;;13.09;75.44
38716;BME280;24833;49.324;8.694;2023-05-10T02:42:38;99202.66;;;13.08;75.62
38716;BME280;24833;49.324;8.694;2023-05-10T02:45:13;99197.28;;;13.08;76.77
38716;BME280;24833;49.324;8.694;2023-05-10T02:47:42;99201.84;;;13.08;77.91
38716;BME280;24833;49.324;8.694;2023-05-10T02:50:10;99196.47;;;13.08;78.11
38716;BME280;24833;49.324;8.694;2023-05-10T02:52:47;99197.53;;;13.07;75.98
38716;BME280;24833;49.324;8.694;2023-05-10T02:55:16;99201.84;;;13.08;75.90
38716;BME280;24833;49.324;8.694;2023-05-10T02:57:52;99206.63;;;13.06;75.38
38716;BME280;24833;49.324;8.694;2023-05-10T03:00:21;99206.38;;;13.07;77.60
38716;BME280;24833;49.324;8.694;2023-05-10T03:02:48;99207.66;;;13.05;76.48
38716;BME280;24833;49.324;8.694;2023-05-10T03:05:15;99209.28;;;13.06;76.77
38716;BME280;24833;49.324;8.694;2023-05-10T03:07:43;99210.94;;;13.07;78.06
38716;BME280;24833;49.324;8.694;2023-05-10T03:10:10;99199.38;;;13.06;77.54
38716;BME280;24833;49.324;8.694;2023-05-10T03:12:52;99204.97;;;13.05;76.75
38716;BME280;24833;49.324;8.694;2023-05-10T03:18:10;99205.81;;;13.05;77.08
38716;BME280;24833;49.324;8.694;2023-05-10T03:20:43;99200.66;;;13.04;77.04
38716;BME280;24833;49.324;8.694;2023-05-10T03:23:42;99207.88;;;13.03;75.36
38716;BME280;24833;49.324;8.694;2023-05-10T03:26:11;99206.03;;;13.04;76.11
38716;BME280;24833;49.324;8.694;2023-05-10T03:28:42;99210.53;;;13.03;77.74
38716;BME280;24833;49.324;8.694;2023-05-10T03:31:09;99211.41;;;13.04;76.47
38716;BME280;24833;49.324;8.694;2023-05-10T03:33:49;99211.59;;;13.02;75.38
38716;BME280;24833;49.324;8.694;2023-05-10T03:36:22;99209.97;;;13.01;77.24
38716;BME280;24833;49.324;8.694;2023-05-10T03:38:49;99213.47;;;13.02;76.89
38716;BME280;24833;49.324;8.694;2023-05-10T03:41:17;99220.69;;;13.01;77.95
38716;BME280;24833;49.324;8.694;2023-05-10T03:43:44;99217.78;;;13.03;77.46
38716;BME280;24833;49.324;8.694;2023-05-10T03:46:11;99234.91;;;13.02;76.89
38716;BME280;24833;49.324;8.694;2023-05-10T03:48:38;99232.22;;;13.02;76.81
38716;BME280;24833;49.324;8.694;2023-05-10T03:51:05;99234.09;;;13.01;77.40
38716;BME280;24833;49.324;8.694;2023-05-10T03:53:32;99234.91;;;13.02;76.06
38716;BME280;24833;49.324;8.694;2023-05-10T03:55:59;99238.63;;;13.01;76.75
38716;BME280;24833;49.324;8.694;2023-05-10T03:58:26;99234.91;;;13.02;76.15
38716;BME280;24833;49.324;8.694;2023-05-10T04:00:53;99233.28;;;13.01;75.60
38716;BME280;24833;49.324;8.694;2023-05-10T04:03:20;99242.13;;;13.01;76.86
38716;BME280;24833;49.324;8.694;2023-05-10T04:05:48;99243.19;;;13.00;75.99
38716;BME280;24833;49.324;8.694;2023-05-10T04:08:15;99248.53;;;13.00;76.36
38716;BME280;24833;49.324;8.694;2023-05-10T04:10:43;99251.22;;;13.00;76.75
38716;BME280;24833;49.324;8.694;2023-05-10T04:13:10;99251.44;;;12.99;76.12
38716;BME280;24833;49.324;8.694;2023-05-10T04:15:37;99252.25;;;12.99;76.40
38716;BME280;24833;49.324;8.694;2023-05-10T04:18:04;99256.81;;;12.99;75.79
38716;BME280;24833;49.324;8.694;2023-05-10T04:20:34;99257.63;;;12.99;76.53
38716;BME280;24833;49.324;8.694;2023-05-10T04:23:01;99254.94;;;12.99;75.72
38716;BME280;24833;49.324;8.694;2023-05-10T04:25:28;99250.41;;;13.00;76.27
38716;BME280;24833;49.324;8.694;2023-05-10T04:27:55;99254.94;;;12.99;75.83
38716;BME280;24833;49.324;8.694;2023-05-10T04:30:22;99254.94;;;12.99;76.30
38716;BME280;24833;49.324;8.694;2023-05-10T04:32:49;99256.56;;;13.00;76.83
38716;BME280;24833;49.324;8.694;2023-05-10T04:35:16;99259.47;;;12.99;75.93
38716;BME280;24833;49.324;8.694;2023-05-10T04:37:43;99257.63;;;12.99;76.48
38716;BME280;24833;49.324;8.694;2023-05-10T04:40:11;99262.16;;;12.99;76.03
38716;BME280;24833;49.324;8.694;2023-05-10T04:42:40;99265.66;;;12.99;75.90
38716;BME280;24833;49.324;8.694;2023-05-10T04:45:08;99260.06;;;13.01;76.18
38716;BME280;24833;49.324;8.694;2023-05-10T04:47:36;99260.06;;;13.01;76.59
38716;BME280;24833;49.324;8.694;2023-05-10T04:50:04;99264.63;;;13.00;76.12
38716;BME280;24833;49.324;8.694;2023-05-10T04:52:32;99260.06;;;13.01;77.21
38716;BME280;24833;49.324;8.694;2023-05-10T04:54:59;99258.22;;;13.01;76.42
38716;BME280;24833;49.324;8.694;2023-05-10T04:57:26;99262.53;;;13.02;76.68
38716;BME280;24833;49.324;8.694;2023-05-10T04:59:53;99267.88;;;13.02;76.47
38716;BME280;24833;49.324;8.694;2023-05-10T05:02:19;99265.19;;;13.02;76.65
38716;BME280;24833;49.324;8.694;2023-05-10T05:04:47;99264.16;;;13.03;76.24
38716;BME280;24833;49.324;8.694;2023-05-10T05:07:14;99277.34;;;13.05;76.05
38716;BME280;24833;49.324;8.694;2023-05-10T05:09:41;99276.91;;;13.08;76.89
38716;BME280;24833;49.324;8.694;2023-05-10T05:12:08;99278.53;;;13.09;76.71
38716;BME280;24833;49.324;8.694;2023-05-10T05:14:40;99284.28;;;13.13;76.61
38716;BME280;24833;49.324;8.694;2023-05-10T05:17:07;99272.75;;;13.12;77.47
38716;BME280;24833;49.324;8.694;2023-05-10T05:19:34;99274.38;;;13.13;76.64
38716;BME280;24833;49.324;8.694;2023-05-10T05:22:02;99271.22;;;13.16;77.03
38716;BME280;24833;49.324;8.694;2023-05-10T05:24:29;99271.03;;;13.18;76.57
38716;BME280;24833;49.324;8.694;2023-05-10T05:27:01;99278.84;;;13.19;76.32
38716;BME280;24833;49.324;8.694;2023-05-10T05:29:28;99275.94;;;13.21;76.88
38716;BME280;24833;49.324;8.694;2023-05-10T05:31:55;99271.41;;;13.21;77.22
38716;BME280;24833;49.324;8.694;2023-05-10T05:34:22;99280.03;;;13.23;76.71
38716;BME280;24833;49.324;8.694;2023-05-10T05:36:49;99277.16;;;13.25;76.89
38716;BME280;24833;49.324;8.694;2023-05-10T05:39:16;99280.41;;;13.27;76.52
38716;BME280;24833;49.324;8.694;2023-05-10T05:41:43;99289.06;;;13.29;76.37
38716;BME280;24833;49.324;8.694;2023-05-10T05:44:10;99286.13;;;13.30;76.80
38716;BME280;24833;49.324;8.694;2023-05-10T05:46:37;99292.13;;;13.32;76.67
38716;BME280;24833;49.324;8.694;2023-05-10T05:49:04;99294.34;;;13.35;76.71
38716;BME280;24833;49.324;8.694;2023-05-10T05:51:31;99303.00;;;13.38;76.90
38716;BME280;24833;49.324;8.694;2023-05-10T05:53:58;99308.94;;;13.40;77.22
38716;BME280;24833;49.324;8.694;2023-05-10T05:56:25;99307.66;;;13.42;76.84
38716;BME280;24833;49.324;8.694;2023-05-10T05:58:52;99307.44;;;13.44;77.26
38716;BME280;24833;49.324;8.694;2023-05-10T06:01:20;99307.00;;;13.47;76.85
38716;BME280;24833;49.324;8.694;2023-05-10T06:03:47;99313.19;;;13.47;77.72
38716;BME280;24833;49.324;8.694;2023-05-10T06:06:17;99304.06;;;13.48;77.15
38716;BME280;24833;49.324;8.694;2023-05-10T06:08:44;99311.88;;;13.50;77.04
38716;BME280;24833;49.324;8.694;2023-05-10T06:11:11;99312.50;;;13.52;77.39
38716;BME280;24833;49.324;8.694;2023-05-10T06:13:38;99314.72;;;13.55;78.47
38716;BME280;24833;49.324;8.694;2023-05-10T06:16:07;99319.66;;;13.58;76.89
38716;BME280;24833;49.324;8.694;2023-05-10T06:18:34;99326.66;;;13.59;77.81
38716;BME280;24833;49.324;8.694;2023-05-10T06:21:01;99328.88;;;13.62;77.49
38716;BME280;24833;49.324;8.694;2023-05-10T06:23:28;99325.75;;;13.65;77.18
38716;BME280;24833;49.324;8.694;2023-05-10T06:25:55;99336.25;;;13.67;77.13
38716;BME280;24833;49.324;8.694;2023-05-10T06:28:22;99337.06;;;13.67;77.56
38716;BME280;24833;49.324;8.694;2023-05-10T06:30:49;99337.66;;;13.69;77.77
38716;BME280;24833;49.324;8.694;2023-05-10T06:33:16;99337.22;;;13.72;78.90
38716;BME280;24833;49.324;8.694;2023-05-10T06:35:43;99347.47;;;13.75;77.92
38716;BME280;24833;49.324;8.694;2023-05-10T06:38:10;99345.63;;;13.76;78.83
38716;BME280;24833;49.324;8.694;2023-05-10T06:40:41;99345.38;;;13.77;78.32
38716;BME280;24833;49.324;8.694;2023-05-10T06:43:08;99343.31;;;13.79;77.77
38716;BME280;24833;49.324;8.694;2023-05-10T06:45:35;99344.94;;;13.80;78.69
38716;BME280;24833;49.324;8.694;2023-05-10T06:48:02;99347.63;;;13.80;77.99
38716;BME280;24833;49.324;8.694;2023-05-10T06:50:29;99351.13;;;13.81;78.42
38716;BME280;24833;49.324;8.694;2023-05-10T06:52:56;99353.56;;;13.82;80.43
38716;BME280;24833;49.324;8.694;2023-05-10T06:55:23;99356.03;;;13.84;79.45
38716;BME280;24833;49.324;8.694;2023-05-10T06:57:50;99355.22;;;13.83;78.17
38716;BME280;24833;49.324;8.694;2023-05-10T07:00:18;99356.63;;;13.86;79.92
38716;BME280;24833;49.324;8.694;2023-05-10T07:02:47;99358.50;;;13.85;79.97
38716;BME280;24833;49.324;8.694;2023-05-10T07:05:14;99359.09;;;13.87;78.79
38716;BME280;24833;49.324;8.694;2023-05-10T07:07:42;99358.84;;;13.89;78.72
38716;BME280;24833;49.324;8.694;2023-05-10T07:10:12;99359.66;;;13.89;80.02
38716;BME280;24833;49.324;8.694;2023-05-10T07:12:43;99366.25;;;13.94;80.49
38716;BME280;24833;49.324;8.694;2023-05-10T07:15:10;99364.59;;;13.93;82.01
38716;BME280;24833;49.324;8.694;2023-05-10T07:17:37;99367.88;;;13.95;81.47
38716;BME280;24833;49.324;8.694;2023-05-10T07:20:05;99362.66;;;14.00;80.08
38716;BME280;24833;49.324;8.694;2023-05-10T07:22:32;99356.59;;;14.04;80.61
38716;BME280;24833;49.324;8.694;2023-05-10T07:24:59;99367.69;;;14.08;81.33
38716;BME280;24833;49.324;8.694;2023-05-10T07:27:26;99369.91;;;14.11;81.80
38716;BME280;24833;49.324;8.694;2023-05-10T07:29:53;99372.16;;;14.14;80.87
38716;BME280;24833;49.324;8.694;2023-05-10T07:32:21;99374.97;;;14.19;80.38
38716;BME280;24833;49.324;8.694;2023-05-10T07:34:48;99364.56;;;14.23;80.03
38716;BME280;24833;49.324;8.694;2023-05-10T07:37:15;99370.91;;;14.28;81.13
38716;BME280;24833;49.324;8.694;2023-05-10T07:39:42;99367.78;;;14.31;81.44
38716;BME280;24833;49.324;8.694;2023-05-10T07:42:09;99373.72;;;14.33;80.97
38716;BME280;24833;49.324;8.694;2023-05-10T07:44:36;99377.56;;;14.37;80.77
38716;BME280;24833;49.324;8.694;2023-05-10T07:47:03;99383.56;;;14.39;80.55
38716;BME280;24833;49.324;8.694;2023-05-10T07:49:30;99378.31;;;14.44;81.26
38716;BME280;24833;49.324;8.694;2023-05-10T07:51:57;99370.19;;;14.51;80.75
38716;BME280;24833;49.324;8.694;2023-05-10T07:54:24;99363.97;;;14.62;80.29
38716;BME280;24833;49.324;8.694;2023-05-10T07:56:51;99368.19;;;14.70;81.41
38716;BME280;24833;49.324;8.694;2023-05-10T07:59:18;99369.97;;;14.76;81.75
38716;BME280;24833;49.324;8.694;2023-05-10T08:01:45;99366.34;;;14.82;81.73
38716;BME280;24833;49.324;8.694;2023-05-10T08:04:12;99371.84;;;14.87;80.91
38716;BME280;24833;49.324;8.694;2023-05-10T08:06:40;99369.03;;;14.94;81.12
38716;BME280;24833;49.324;8.694;2023-05-10T08:09:08;99371.84;;;14.99;81.15
38716;BME280;24833;49.324;8.694;2023-05-10T08:11:35;99371.94;;;15.04;80.43
38716;BME280;24833;49.324;8.694;2023-05-10T08:14:02;99377.69;;;15.08;81.14
38716;BME280;24833;49.324;8.694;2023-05-10T08:16:29;99383.63;;;15.10;81.04
38716;BME280;24833;49.324;8.694;2023-05-10T08:18:56;99377.91;;;15.18;80.35
38716;BME280;24833;49.324;8.694;2023-05-10T08:21:23;99383.88;;;15.20;81.24
38716;BME280;24833;49.324;8.694;2023-05-10T08:23:50;99388.31;;;15.26;80.37
38716;BME280;24833;49.324;8.694;2023-05-10T08:26:17;99382.69;;;15.27;81.84
38716;BME280;24833;49.324;8.694;2023-05-10T08:28:44;99379.31;;;15.32;80.69
38716;BME280;24833;49.324;8.694;2023-05-10T08:31:12;99384.78;;;15.37;80.54
38716;BME280;24833;49.324;8.694;2023-05-10T08:33:39;99391.81;;;15.38;80.98
38716;BME280;24833;49.324;8.694;2023-05-10T08:36:08;99391.22;;;15.36;80.74
38716;BME280;24833;49.324;8.694;2023-05-10T08:38:36;99402.34;;;15.40;80.87
38716;BME280;24833;49.324;8.694;2023-05-10T08:41:05;99394.50;;;15.38;80.80
38716;BME280;24833;49.324;8.694;2023-05-10T08:43:32;99395.09;;;15.40;81.36
38716;BME280;24833;49.324;8.694;2023-05-10T08:46:01;99400.78;;;15.44;80.72
38716;BME280;24833;49.324;8.694;2023-05-10T08:48:30;99392.28;;;15.47;80.85
38716;BME280;24833;49.324;8.694;2023-05-10T08:50:58;99394.94;;;15.59;80.66
38716;BME280;24833;49.324;8.694;2023-05-10T08:53:28;99393.19;;;15.64;80.81
38716;BME280;24833;49.324;8.694;2023-05-10T08:55:57;99387.09;;;15.69;79.70
38716;BME280;24833;49.324;8.694;2023-05-10T08:58:25;99397.16;;;15.73;79.68
38716;BME280;24833;49.324;8.694;2023-05-10T09:00:52;99393.53;;;15.68;80.39
38716;BME280;24833;49.324;8.694;2023-05-10T09:03:20;99395.16;;;15.69;80.09
38716;BME280;24833;49.324;8.694;2023-05-10T09:05:48;99409.69;;;15.68;80.25
38716;BME280;24833;49.324;8.694;2023-05-10T09:08:16;99405.94;;;15.69;79.79
38716;BME280;24833;49.324;8.694;2023-05-10T09:10:44;99402.69;;;15.67;79.71
38716;BME280;24833;49.324;8.694;2023-05-10T09:13:14;99400.44;;;15.64;79.34
38716;BME280;24833;49.324;8.694;2023-05-10T09:15:44;99411.22;;;15.64;78.89
38716;BME280;24833;49.324;8.694;2023-05-10T09:18:12;99414.00;;;15.69;79.07
38716;BME280;24833;49.324;8.694;2023-05-10T09:20:39;99413.91;;;15.64;78.91
38716;BME280;24833;49.324;8.694;2023-05-10T09:23:07;99408.88;;;15.67;79.15
38716;BME280;24833;49.324;8.694;2023-05-10T09:25:34;99406.75;;;15.69;78.97
38716;BME280;24833;49.324;8.694;2023-05-10T09:28:01;99412.72;;;15.71;79.05
38716;BME280;24833;49.324;8.694;2023-05-10T09:30:30;99417.50;;;15.81;78.97
38716;BME280;24833;49.324;8.694;2023-05-10T09:32:58;99420.06;;;15.88;79.08
38716;BME280;24833;49.324;8.694;2023-05-10T09:35:31;99421.22;;;15.92;78.67
38716;BME280;24833;49.324;8.694;2023-05-10T09:38:04;99422.47;;;16.01;78.58
38716;BME280;24833;49.324;8.694;2023-05-10T09:40:32;99434.41;;;16.05;78.71
38716;BME280;24833;49.324;8.694;2023-05-10T09:43:05;99426.19;;;16.12;77.97
38716;BME280;24833;49.324;8.694;2023-05-10T09:45:34;99430.59;;;16.18;78.04
38716;BME280;24833;49.324;8.694;2023-05-10T09:48:05;99417.22;;;16.23;77.72
38716;BME280;24833;49.324;8.694;2023-05-10T09:50:33;99424.34;;;16.29;78.23
38716;BME280;24833;49.324;8.694;2023-05-10T09:53:02;99429.03;;;16.33;78.06
38716;BME280;24833;49.324;8.694;2023-05-10T09:58:02;99430.09;;;16.49;77.43
38716;BME280;24833;49.324;8.694;2023-05-10T10:00:40;99437.22;;;16.55;76.75
38716;BME280;24833;49.324;8.694;2023-05-10T10:03:14;99429.22;;;16.60;77.12
38716;BME280;24833;49.324;8.694;2023-05-10T10:05:43;99430.22;;;16.71;76.91
38716;BME280;24833;49.324;8.694;2023-05-10T10:08:11;99423.16;;;16.82;76.46
38716;BME280;24833;49.324;8.694;2023-05-10T10:10:40;99433.09;;;16.98;76.36
38716;BME280;24833;49.324;8.694;2023-05-10T10:13:07;99437.59;;;17.09;76.55
38716;BME280;24833;49.324;8.694;2023-05-10T10:15:35;99443.00;;;17.09;75.09
38716;BME280;24833;49.324;8.694;2023-05-10T10:18:03;99440.88;;;17.11;74.67
38716;BME280;24833;49.324;8.694;2023-05-10T10:20:33;99455.94;;;17.07;73.73
38716;BME280;24833;49.324;8.694;2023-05-10T10:23:00;99437.34;;;17.11;73.73
38716;BME280;24833;49.324;8.694;2023-05-10T10:25:27;99441.53;;;17.19;73.34
38716;BME280;24833;49.324;8.694;2023-05-10T10:28:09;99445.13;;;17.07;71.05
38716;BME280;24833;49.324;8.694;2023-05-10T10:30:50;99433.19;;;17.20;73.76
38716;BME280;24833;49.324;8.694;2023-05-10T10:36:15;99443.94;;;17.37;73.24
38716;BME280;24833;49.324;8.694;2023-05-10T10:41:37;99448.50;;;17.53;71.24
38716;BME280;24833;49.324;8.694;2023-05-10T10:52:36;99433.47;;;18.01;74.56
38716;BME280;24833;49.324;8.694;2023-05-10T10:55:14;99440.84;;;18.06;72.36
38716;BME280;24833;49.324;8.694;2023-05-10T11:00:32;99450.06;;;17.88;69.19
38716;BME280;24833;49.324;8.694;2023-05-10T11:03:09;99444.13;;;17.86;70.43
38716;BME280;24833;49.324;8.694;2023-05-10T11:05:47;99445.84;;;17.97;71.62
38716;BME280;24833;49.324;8.694;2023-05-10T11:08:32;99445.91;;;18.02;71.59
38716;BME280;24833;49.324;8.694;2023-05-10T11:11:05;99442.22;;;18.08;71.24
38716;BME280;24833;49.324;8.694;2023-05-10T11:13:46;99449.19;;;18.04;69.17
38716;BME280;24833;49.324;8.694;2023-05-10T11:16:24;99446.38;;;17.94;69.59
38716;BME280;24833;49.324;8.694;2023-05-10T11:19:10;99445.50;;;17.88;70.06
38716;BME280;24833;49.324;8.694;2023-05-10T11:21:50;99439.69;;;18.02;70.11
38716;BME280;24833;49.324;8.694;2023-05-10T11:24:22;99447.63;;;18.08;68.88
38716;BME280;24833;49.324;8.694;2023-05-10T11:26:53;99451.47;;;18.12;69.15
38716;BME280;24833;49.324;8.694;2023-05-10T11:29:20;99462.88;;;18.19;69.64
38716;BME280;24833;49.324;8.694;2023-05-10T11:31:50;99452.53;;;18.38;69.69
38716;BME280;24833;49.324;8.694;2023-05-10T11:34:31;99465.56;;;18.41;68.32
38716;BME280;24833;49.324;8.694;2023-05-10T11:37:00;99457.84;;;18.55;67.26
38716;BME280;24833;49.324;8.694;2023-05-10T11:39:29;99463.88;;;18.62;66.71
38716;BME280;24833;49.324;8.694;2023-05-10T11:41:57;99460.44;;;18.67;67.25
38716;BME280;24833;49.324;8.694;2023-05-10T11:44:34;99466.91;;;18.66;64.17
38716;BME280;24833;49.324;8.694;2023-05-10T11:47:02;99470.75;;;18.48;66.05
38716;BME280;24833;49.324;8.694;2023-05-10T11:49:29;99472.41;;;18.49;65.80
38716;BME280;24833;49.324;8.694;2023-05-10T11:52:06;99471.88;;;18.52;66.97
38716;BME280;24833;49.324;8.694;2023-05-10T11:54:34;99481.59;;;18.48;66.43
38716;BME280;24833;49.324;8.694;2023-05-10T11:57:04;99474.75;;;18.40;65.68
38716;BME280;24833;49.324;8.694;2023-05-10T11:59:32;99478.41;;;18.29;65.49
38716;BME280;24833;49.324;8.694;2023-05-10T12:01:59;99472.72;;;18.31;65.98
38716;BME280;24833;49.324;8.694;2023-05-10T12:04:29;99477.44;;;18.18;65.84
38716;BME280;24833;49.324;8.694;2023-05-10T12:07:02;99476.53;;;18.08;65.70
38716;BME280;24833;49.324;8.694;2023-05-10T12:09:43;99486.47;;;18.02;65.87
38716;BME280;24833;49.324;8.694;2023-05-10T12:12:16;99495.84;;;17.78;65.12
38716;BME280;24833;49.324;8.694;2023-05-10T12:14:43;99491.03;;;17.63;65.67
38716;BME280;24833;49.324;8.694;2023-05-10T12:17:13;99494.34;;;17.48;65.14
38716;BME280;24833;49.324;8.694;2023-05-10T12:19:41;99491.25;;;17.23;65.14
38716;BME280;24833;49.324;8.694;2023-05-10T12:22:08;99500.72;;;17.08;65.83
38716;BME280;24833;49.324;8.694;2023-05-10T12:24:36;99492.44;;;16.98;66.14
38716;BME280;24833;49.324;8.694;2023-05-10T12:27:05;99496.06;;;16.87;66.04
38716;BME280;24833;49.324;8.694;2023-05-10T12:29:35;99500.19;;;16.78;66.21
38716;BME280;24833;49.324;8.694;2023-05-10T12:32:02;99498.56;;;16.77;66.72
38716;BME280;24833;49.324;8.694;2023-05-10T12:34:34;99496.47;;;16.79;66.71
38716;BME280;24833;49.324;8.694;2023-05-10T12:37:03;99492.56;;;16.86;67.20
38716;BME280;24833;49.324;8.694;2023-05-10T12:39:44;99494.03;;;16.94;67.73
38716;BME280;24833;49.324;8.694;2023-05-10T12:42:11;99496.81;;;16.99;67.06
38716;BME280;24833;49.324;8.694;2023-05-10T12:44:39;99487.06;;;17.15;67.35
38716;BME280;24833;49.324;8.694;2023-05-10T12:47:06;99490.78;;;17.26;67.45
38716;BME280;24833;49.324;8.694;2023-05-10T12:49:33;99492.13;;;17.45;68.03
38716;BME280;24833;49.324;8.694;2023-05-10T12:52:01;99491.38;;;17.66;67.83
38716;BME280;24833;49.324;8.694;2023-05-10T12:54:29;99490.69;;;17.93;68.30
38716;BME280;24833;49.324;8.694;2023-05-10T12:56:56;99494.69;;;18.12;67.58
38716;BME280;24833;49.324;8.694;2023-05-10T12:59:23;99493.50;;;18.52;67.20
38716;BME280;24833;49.324;8.694;2023-05-10T13:01:50;99492.91;;;18.99;66.10
38716;BME280;24833;49.324;8.694;2023-05-10T13:04:17;99486.00;;;19.13;63.94
38716;BME280;24833;49.324;8.694;2023-05-10T13:06:44;99499.75;;;19.44;62.93
38716;BME280;24833;49.324;8.694;2023-05-10T13:09:11;99490.19;;;19.68;63.67
38716;BME280;24833;49.324;8.694;2023-05-10T13:11:38;99489.94;;;19.70;63.10
38716;BME280;24833;49.324;8.694;2023-05-10T13:14:06;99484.81;;;19.78;61.42
38716;BME280;24833;49.324;8.694;2023-05-10T13:16:33;99486.00;;;19.98;62.10
38716;BME280;24833;49.324;8.694;2023-05-10T13:19:00;99487.66;;;20.04;62.19
38716;BME280;24833;49.324;8.694;2023-05-10T13:21:27;99479.81;;;20.12;62.60
38716;BME280;24833;49.324;8.694;2023-05-10T13:23:54;99476.88;;;20.14;61.69
38716;BME280;24833;49.324;8.694;2023-05-10T13:26:22;99476.88;;;20.24;61.71
38716;BME280;24833;49.324;8.694;2023-05-10T13:28:49;99476.88;;;20.14;59.38
38716;BME280;24833;49.324;8.694;2023-05-10T13:31:18;99475.47;;;20.11;59.84
38716;BME280;24833;49.324;8.694;2023-05-10T13:33:45;99482.25;;;20.04;58.63
38716;BME280;24833;49.324;8.694;2023-05-10T13:36:12;99476.53;;;20.00;59.33
38716;BME280;24833;49.324;8.694;2023-05-10T13:38:39;99479.75;;;19.92;59.14
38716;BME280;24833;49.324;8.694;2023-05-10T13:41:06;99483.25;;;19.93;58.90
38716;BME280;24833;49.324;8.694;2023-05-10T13:43:33;99482.16;;;19.83;57.48